Time;durP1;ratioP1;P1;durP2;ratioP2;P2;SDS_P1;SDS_P2;PMS_P1;PMS_P2;Temp;Humidity;BMP_temperature;BMP_pressure;BME280_temperature;BME280_humidity;BME280_pressure;Samples;Min_cycle;Max_cycle;Signal;HPM_P1;HPM_P2
2022/06/15 00:00:18;;;;;;;;;;;;;;;15.52;60.04;100188.50;4376915;32;19986;-87
2022/06/15 00:02:43;;;;;;;;;;;;;;;15.32;60.04;100196.41;4378221;32;20049;-87
2022/06/15 00:05:09;;;;;;;;;;;;;;;15.30;60.03;100204.34;4377848;32;25006;-86
2022/06/15 00:07:34;;;;;;;;;;;;;;;15.07;60.02;100204.50;4387076;32;20014;-87
2022/06/15 00:10:00;;;;;;;;;;;;;;;15.21;60.03;100199.53;4386870;32;19971;-87
2022/06/15 00:12:25;;;;;;;;;;;;;;;15.16;60.04;100204.13;4378467;32;19996;-88
2022/06/15 00:14:51;;;;;;;;;;;;;;;15.07;60.02;100207.13;4377453;32;27930;-88
2022/06/15 00:17:16;;;;;;;;;;;;;;;15.19;60.03;100205.75;4377322;32;20017;-88
2022/06/15 00:19:41;;;;;;;;;;;;;;;15.33;60.04;100201.59;4378137;32;20025;-88
2022/06/15 00:22:06;;;;;;;;;;;;;;;14.99;60.02;100211.88;4377992;32;19982;-88
2022/06/15 00:24:32;;;;;;;;;;;;;;;14.88;60.01;100201.81;4364706;32;25261;-88
2022/06/15 00:26:57;;;;;;;;;;;;;;;14.84;60.00;100210.72;4379523;32;19984;-88
2022/06/15 00:29:22;;;;;;;;;;;;;;;15.03;60.02;100198.56;4365793;32;20252;-88
2022/06/15 00:31:47;;;;;;;;;;;;;;;14.84;60.00;100204.62;4378251;32;19987;-88
2022/06/15 00:34:13;;;;;;;;;;;;;;;14.68;59.99;100205.31;4365460;32;20001;-88
2022/06/15 00:36:38;;;;;;;;;;;;;;;14.69;60.00;100207.00;4378037;32;20435;-89
2022/06/15 00:39:03;;;;;;;;;;;;;;;14.60;60.00;100198.66;4377743;32;20005;-88
2022/06/15 00:41:30;;;;;;;;;;;;;;;14.48;60.00;100204.41;4365526;32;20003;-88
2022/06/15 00:43:56;;;;;;;;;;;;;;;14.47;60.00;100203.56;4378176;32;20009;-88
2022/06/15 00:46:37;;;;;;;;;;;;;;;14.41;59.99;100194.13;4365525;32;19998;-87
2022/06/15 00:49:14;;;;;;;;;;;;;;;14.34;59.99;100197.91;4378018;32;19978;-88
2022/06/15 00:51:40;;;;;;;;;;;;;;;14.40;59.99;100195.03;4377772;32;19966;-88
2022/06/15 00:54:06;;;;;;;;;;;;;;;14.37;59.98;100195.16;4377848;32;20006;-88
2022/06/15 00:56:31;;;;;;;;;;;;;;;14.43;59.99;100189.75;4378824;32;19991;-88
2022/06/15 00:59:01;;;;;;;;;;;;;;;14.22;59.97;100195.81;4368046;32;20002;-87
2022/06/15 01:01:26;;;;;;;;;;;;;;;14.22;59.97;100192.34;4378088;32;19987;-88
2022/06/15 01:03:52;;;;;;;;;;;;;;;14.29;59.98;100199.87;4390673;32;20268;-87
2022/06/15 01:06:26;;;;;;;;;;;;;;;14.48;60.00;100205.25;4365162;32;19979;-88
2022/06/15 01:08:54;;;;;;;;;;;;;;;14.38;59.98;100212.59;4378856;32;19994;-87
2022/06/15 01:11:27;;;;;;;;;;;;;;;14.42;59.99;100208.06;4378914;32;19971;-86
2022/06/15 01:13:59;;;;;;;;;;;;;;;14.48;60.00;100209.66;4377605;32;19995;-87
2022/06/15 01:16:51;;;;;;;;;;;;;;;14.17;59.97;100202.13;4377581;32;20005;-86
2022/06/15 01:19:36;;;;;;;;;;;;;;;14.38;59.98;100212.59;4355423;32;19999;-86
2022/06/15 01:22:13;;;;;;;;;;;;;;;14.53;59.98;100215.53;4377523;32;20040;-87
2022/06/15 01:24:41;;;;;;;;;;;;;;;14.50;59.99;100213.06;4378667;32;19979;-87
2022/06/15 01:27:19;;;;;;;;;;;;;;;14.48;59.98;100220.13;4377437;32;20003;-87
2022/06/15 01:29:59;;;;;;;;;;;;;;;14.21;59.97;100224.66;4378680;32;20001;-86
2022/06/15 01:32:27;;;;;;;;;;;;;;;14.38;59.98;100223.06;4377425;32;20047;-86
2022/06/15 01:34:59;;;;;;;;;;;;;;;14.61;59.99;100224.78;4377338;32;20383;-87
2022/06/15 01:37:31;;;;;;;;;;;;;;;14.49;59.99;100220.06;4377512;32;19997;-87
2022/06/15 01:40:04;;;;;;;;;;;;;;;14.41;59.99;100222.94;4364829;32;19987;-86
2022/06/15 01:42:31;;;;;;;;;;;;;;;14.30;59.97;100222.53;4377399;32;19970;-86
2022/06/15 01:44:58;;;;;;;;;;;;;;;14.27;59.98;100222.66;4377090;32;19998;-86
2022/06/15 01:47:24;;;;;;;;;;;;;;;14.09;59.97;100221.59;4377244;32;20015;-86
2022/06/15 01:49:52;;;;;;;;;;;;;;;14.06;59.97;100223.50;4378662;32;20378;-87
2022/06/15 01:52:18;;;;;;;;;;;;;;;13.92;59.95;100223.16;4379245;32;19998;-87
2022/06/15 01:54:48;;;;;;;;;;;;;;;14.11;59.97;100224.16;4366712;32;19986;-86
2022/06/15 01:57:14;;;;;;;;;;;;;;;14.08;59.97;100226.91;4381635;32;20008;-86
2022/06/15 01:59:41;;;;;;;;;;;;;;;13.81;59.95;100224.44;4381467;32;19975;-86
2022/06/15 02:02:24;;;;;;;;;;;;;;;13.74;59.94;100224.72;4381790;32;20354;-86
2022/06/15 02:04:54;;;;;;;;;;;;;;;13.96;59.96;100222.12;4394926;32;20002;-86
2022/06/15 02:07:28;;;;;;;;;;;;;;;13.76;59.95;100225.50;4381491;32;20378;-86
2022/06/15 02:10:00;;;;;;;;;;;;;;;13.82;59.95;100220.03;4395212;32;19979;-86
2022/06/15 02:12:44;;;;;;;;;;;;;;;13.79;59.95;100223.63;4381361;32;19985;-86
2022/06/15 02:15:10;;;;;;;;;;;;;;;13.98;59.96;100230.78;4395048;32;20003;-86
2022/06/15 02:17:40;;;;;;;;;;;;;;;14.05;59.96;100221.78;4381372;32;20089;-86
2022/06/15 02:20:27;;;;;;;;;;;;;;;14.33;59.99;100216.31;4368776;32;20053;-86
2022/06/15 02:22:52;;;;;;;;;;;;;;;13.90;59.96;100224.97;4395286;32;19975;-86
2022/06/15 02:25:18;;;;;;;;;;;;;;;13.95;59.96;100223.03;4381264;32;20255;-86
2022/06/15 02:27:43;;;;;;;;;;;;;;;13.94;59.95;100221.31;4368841;32;20004;-86
2022/06/15 02:30:13;;;;;;;;;;;;;;;13.75;59.95;100224.66;4380966;32;22919;-86
2022/06/15 02:32:40;;;;;;;;;;;;;;;13.85;59.95;100225.16;4368733;32;20362;-86
2022/06/15 02:35:05;;;;;;;;;;;;;;;13.70;59.94;100223.09;4368817;32;19994;-87
2022/06/15 02:37:31;;;;;;;;;;;;;;;13.40;59.92;100220.72;4381215;32;20267;-87
2022/06/15 02:39:56;;;;;;;;;;;;;;;13.50;59.94;100224.72;4393734;32;20034;-85
2022/06/15 02:42:21;;;;;;;;;;;;;;;13.69;59.94;100218.78;4394556;32;30398;-85
2022/06/15 02:44:46;;;;;;;;;;;;;;;13.55;59.94;100215.84;4394952;32;20235;-87
2022/06/15 02:47:11;;;;;;;;;;;;;;;13.50;59.94;100222.09;4369073;32;20275;-87
2022/06/15 02:49:37;;;;;;;;;;;;;;;13.30;59.92;100214.13;4368506;32;19978;-87
2022/06/15 02:52:04;;;;;;;;;;;;;;;13.10;59.90;100221.78;4381134;32;19979;-87
2022/06/15 02:54:30;;;;;;;;;;;;;;;13.19;59.92;100226.69;4380923;32;20327;-87
2022/06/15 02:56:55;;;;;;;;;;;;;;;13.43;59.93;100219.75;4381010;32;20004;-86
2022/06/15 02:59:20;;;;;;;;;;;;;;;13.38;59.92;100229.53;4380694;32;20021;-86
2022/06/15 03:01:46;;;;;;;;;;;;;;;13.53;59.93;100231.59;4368057;32;20319;-86
2022/06/15 03:04:11;;;;;;;;;;;;;;;13.30;59.92;100228.94;4381001;32;20013;-87
2022/06/15 03:06:36;;;;;;;;;;;;;;;13.36;59.92;100228.72;4380897;32;20382;-86
2022/06/15 03:09:01;;;;;;;;;;;;;;;13.36;59.93;100231.34;4393024;32;32438;-86
2022/06/15 03:11:27;;;;;;;;;;;;;;;13.56;59.93;100234.09;4368199;32;19963;-87
2022/06/15 03:13:52;;;;;;;;;;;;;;;13.43;59.93;100231.06;4380566;32;20032;-87
2022/06/15 03:16:17;;;;;;;;;;;;;;;13.53;59.93;100239.44;4368226;32;19990;-87
2022/06/15 03:18:42;;;;;;;;;;;;;;;13.73;59.95;100234.34;4380915;32;20313;-87
2022/06/15 03:21:07;;;;;;;;;;;;;;;13.77;59.95;100232.44;4380628;32;19978;-88
2022/06/15 03:23:33;;;;;;;;;;;;;;;13.96;59.96;100233.47;4380275;32;20009;-87
2022/06/15 03:25:58;;;;;;;;;;;;;;;14.02;59.96;100235.00;4380663;32;19995;-87
2022/06/15 03:28:24;;;;;;;;;;;;;;;14.33;59.98;100235.50;4380880;32;19986;-87
2022/06/15 03:30:49;;;;;;;;;;;;;;;14.22;59.97;100235.09;4368236;32;19993;-86
2022/06/15 03:33:14;;;;;;;;;;;;;;;14.04;59.96;100234.03;4394872;32;19990;-87
2022/06/15 03:35:40;;;;;;;;;;;;;;;14.28;59.98;100232.22;4380950;32;20320;-87
2022/06/15 03:38:08;;;;;;;;;;;;;;;14.20;59.97;100242.16;4394458;32;19994;-87
2022/06/15 03:40:33;;;;;;;;;;;;;;;14.23;59.97;100231.53;4380994;32;20420;-87
2022/06/15 03:42:59;;;;;;;;;;;;;;;14.46;59.98;100230.66;4368248;32;19986;-87
2022/06/15 03:45:24;;;;;;;;;;;;;;;14.56;59.99;100224.13;4394004;32;20256;-87
2022/06/15 03:47:49;;;;;;;;;;;;;;;14.54;59.99;100231.19;4393208;32;20042;-87
2022/06/15 03:50:14;;;;;;;;;;;;;;;14.50;59.99;100231.41;4380443;32;19963;-84
2022/06/15 03:52:40;;;;;;;;;;;;;;;14.53;59.99;100234.75;4394137;32;20006;-87
2022/06/15 03:55:05;;;;;;;;;;;;;;;14.67;60.00;100228.94;4393891;32;20022;-86
2022/06/15 03:57:30;;;;;;;;;;;;;;;14.55;59.98;100240.75;4380773;32;20017;-87
2022/06/15 03:59:55;;;;;;;;;;;;;;;14.62;59.99;100233.50;4380190;32;23762;-90
2022/06/15 04:02:21;;;;;;;;;;;;;;;14.84;60.00;100242.19;4380671;32;20399;-88
2022/06/15 04:04:46;;;;;;;;;;;;;;;14.76;59.99;100235.56;4367587;32;19999;-88
2022/06/15 04:09:55;;;;;;;;;;;;;;;14.93;60.01;100236.56;4382746;32;19981;-86
2022/06/15 04:12:21;;;;;;;;;;;;;;;15.07;60.01;100240.37;4392507;32;26226;-86
2022/06/15 04:14:46;;;;;;;;;;;;;;;15.11;60.02;100234.91;4368235;32;20005;-87
2022/06/15 04:17:12;;;;;;;;;;;;;;;15.22;60.02;100237.94;4380536;32;19994;-87
2022/06/15 04:19:37;;;;;;;;;;;;;;;15.22;60.02;100237.94;4380686;32;20296;-87
2022/06/15 04:22:02;;;;;;;;;;;;;;;15.46;60.03;100233.41;4392862;32;20010;-87
2022/06/15 04:24:28;;;;;;;;;;;;;;;15.57;60.05;100239.00;4380468;32;19994;-87
2022/06/15 04:26:53;;;;;;;;;;;;;;;15.73;60.05;100233.97;4394412;32;19987;-85
2022/06/15 04:29:18;;;;;;;;;;;;;;;15.82;60.06;100235.31;4379808;32;29874;-85
2022/06/15 04:31:43;;;;;;;;;;;;;;;15.94;60.07;100242.62;4368050;32;20040;-87
2022/06/15 04:34:11;;;;;;;;;;;;;;;15.97;60.06;100237.22;4394115;32;19971;-86
2022/06/15 04:36:37;;;;;;;;;;;;;;;16.02;60.07;100237.88;4368108;32;19978;-87
2022/06/15 04:39:03;;;;;;;;;;;;;;;16.10;60.07;100232.28;4367893;32;19983;-86
2022/06/15 04:41:28;;;;;;;;;;;;;;;16.18;60.08;100232.75;4394001;32;19991;-86
2022/06/15 04:43:53;;;;;;;;;;;;;;;16.16;60.06;100237.22;4380414;32;20371;-86
2022/06/15 04:46:19;;;;;;;;;;;;;;;16.35;60.08;100232.81;4379635;32;22748;-86
2022/06/15 04:48:44;;;;;;;;;;;;;;;16.44;60.09;100234.13;4393428;32;27103;-86
2022/06/15 04:51:13;;;;;;;;;;;;;;;16.65;60.10;100229.63;4379880;32;20093;-86
2022/06/15 04:53:38;;;;;;;;;;;;;;;16.82;60.11;100227.88;4380263;32;20058;-86
2022/06/15 04:56:04;;;;;;;;;;;;;;;16.87;60.11;100231.13;4393332;32;25733;-86
2022/06/15 04:58:29;;;;;;;;;;;;;;;16.78;60.11;100235.97;4393901;32;20015;-86
2022/06/15 05:00:54;;;;;;;;;;;;;;;17.29;60.13;100232.50;4393953;32;20283;-86
2022/06/15 05:03:20;;;;;;;;;;;;;;;17.16;60.13;100234.06;4380071;32;20000;-86
2022/06/15 05:05:45;;;;;;;;;;;;;;;17.27;60.13;100230.84;4367623;32;20322;-86
2022/06/15 05:08:10;;;;;;;;;;;;;;;17.27;60.13;100233.50;4379677;32;20402;-86
2022/06/15 05:10:35;;;;;;;;;;;;;;;17.22;60.12;100233.72;4393856;32;19979;-86
2022/06/15 05:13:01;;;;;;;;;;;;;;;17.50;60.14;100235.75;4380072;32;20401;-86
2022/06/15 05:15:26;;;;;;;;;;;;;;;17.55;60.15;100232.91;4379626;32;19979;-86
2022/06/15 05:17:51;;;;;;;;;;;;;;;17.65;60.15;100239.38;4367491;32;20033;-86
2022/06/15 05:20:16;;;;;;;;;;;;;;;17.78;60.17;100238.69;4393378;32;23832;-86
2022/06/15 05:22:42;;;;;;;;;;;;;;;17.77;60.16;100237.00;4379985;32;19986;-87
2022/06/15 05:25:08;;;;;;;;;;;;;;;17.92;60.16;100231.81;4366997;32;19978;-87
2022/06/15 05:27:34;;;;;;;;;;;;;;;18.15;60.17;100226.13;4367375;32;20323;-87
2022/06/15 05:29:59;;;;;;;;;;;;;;;18.21;60.18;100238.94;4379796;32;20002;-86
2022/06/15 05:32:24;;;;;;;;;;;;;;;18.57;60.20;100232.53;4393690;32;20021;-86
2022/06/15 05:34:50;;;;;;;;;;;;;;;18.78;60.21;100228.72;4379830;32;20021;-86
2022/06/15 05:37:15;;;;;;;;;;;;;;;18.72;60.21;100234.34;4379733;32;20021;-86
2022/06/15 05:39:40;;;;;;;;;;;;;;;18.95;60.22;100239.12;4393504;32;19987;-86
2022/06/15 05:42:06;;;;;;;;;;;;;;;19.32;60.25;100226.38;4379892;32;20030;-86
2022/06/15 05:46:57;;;;;;;;;;;;;;;19.85;60.28;100232.81;4379749;32;19993;-86
2022/06/15 05:49:22;;;;;;;;;;;;;;;19.99;60.28;100229.31;4379617;32;19998;-87
2022/06/15 05:51:47;;;;;;;;;;;;;;;20.12;60.28;100233.72;4393427;32;20080;-87
2022/06/15 05:54:12;;;;;;;;;;;;;;;20.40;60.30;100227.53;4392665;32;27598;-86
2022/06/15 05:56:38;;;;;;;;;;;;;;;20.55;60.32;100230.97;4392611;32;27298;-87
2022/06/15 05:59:03;;;;;;;;;;;;;;;20.76;60.32;100231.34;4393362;32;19994;-86
2022/06/15 06:01:29;;;;;;;;;;;;;;;20.73;60.32;100229.75;4391601;32;20000;-87
2022/06/15 06:03:54;;;;;;;;;;;;;;;20.95;60.33;100226.53;4379473;32;19983;-87
2022/06/15 06:06:19;;;;;;;;;;;;;;;20.97;60.33;100227.25;4378820;32;19999;-86
2022/06/15 06:08:45;;;;;;;;;;;;;;;21.20;60.35;100230.16;4379022;32;20029;-86
2022/06/15 06:11:10;;;;;;;;;;;;;;;21.41;60.35;100234.00;4379171;32;20256;-87
2022/06/15 06:13:35;;;;;;;;;;;;;;;21.49;60.36;100238.75;4392675;32;24126;-86
2022/06/15 06:16:00;;;;;;;;;;;;;;;21.73;60.37;100231.75;4366697;32;20012;-86
2022/06/15 06:18:26;;;;;;;;;;;;;;;21.78;60.38;100229.66;4392408;32;23352;-86
2022/06/15 06:20:51;;;;;;;;;;;;;;;22.05;60.38;100234.81;4393072;32;20043;-87
2022/06/15 06:23:16;;;;;;;;;;;;;;;22.01;60.38;100234.16;4366674;32;20100;-87
2022/06/15 06:25:42;;;;;;;;;;;;;;;22.24;60.39;100235.19;4392907;32;20006;-86
2022/06/15 06:28:11;;;;;;;;;;;;;;;22.34;60.41;100235.34;4392814;32;20028;-86
2022/06/15 06:30:37;;;;;;;;;;;;;;;22.29;60.40;100234.84;4365913;32;19995;-86
2022/06/15 06:33:02;;;;;;;;;;;;;;;22.42;60.41;100238.28;4390975;32;19998;-87
2022/06/15 06:35:27;;;;;;;;;;;;;;;22.56;60.42;100237.28;4391121;32;19994;-87
2022/06/15 06:37:53;;;;;;;;;;;;;;;22.83;60.43;100243.19;4380356;32;24416;-87
2022/06/15 06:40:19;;;;;;;;;;;;;;;23.05;60.45;100239.78;4381142;32;19991;-86
2022/06/15 06:42:44;;;;;;;;;;;;;;;23.24;60.45;100242.72;4394848;32;19993;-86
2022/06/15 06:45:10;;;;;;;;;;;;;;;23.56;60.46;100242.91;4394194;32;25178;-87
2022/06/15 06:47:35;;;;;;;;;;;;;;;23.82;60.48;100237.34;4380980;32;20008;-86
2022/06/15 06:50:00;;;;;;;;;;;;;;;24.16;60.49;100232.84;4393026;32;25097;-87
2022/06/15 06:52:26;;;;;;;;;;;;;;;24.43;60.52;100222.66;4368116;32;23433;-87
2022/06/15 06:54:51;;;;;;;;;;;;;;;24.77;60.53;100231.34;4380386;32;21962;-87
2022/06/15 06:57:16;;;;;;;;;;;;;;;25.04;60.54;100225.53;4394701;32;20001;-87
2022/06/15 06:59:42;;;;;;;;;;;;;;;25.17;60.56;100227.19;4394103;32;24689;-86
2022/06/15 07:02:08;;;;;;;;;;;;;;;25.39;60.56;100216.37;4381066;32;19970;-87
2022/06/15 07:04:33;;;;;;;;;;;;;;;25.26;60.56;100224.56;4380789;32;19992;-86
2022/06/15 07:06:59;;;;;;;;;;;;;;;25.21;60.55;100234.78;4394197;32;22915;-87
2022/06/15 07:09:24;;;;;;;;;;;;;;;25.12;60.54;100230.25;4368571;32;20005;-87
2022/06/15 07:11:49;;;;;;;;;;;;;;;25.47;60.57;100229.88;4394696;32;20319;-88
2022/06/15 07:14:14;;;;;;;;;;;;;;;25.69;60.58;100232.38;4367730;32;25085;-86
2022/06/15 07:16:40;;;;;;;;;;;;;;;25.83;60.58;100230.34;4394655;32;20241;-86
2022/06/15 07:19:05;;;;;;;;;;;;;;;25.94;60.60;100227.56;4368344;32;20005;-87
2022/06/15 07:21:30;;;;;;;;;;;;;;;25.98;60.59;100234.31;4394179;32;20069;-87
2022/06/15 07:23:56;;;;;;;;;;;;;;;26.06;60.60;100236.31;4380168;32;26084;-87
2022/06/15 07:26:22;;;;;;;;;;;;;;;26.21;60.60;100235.78;4394424;32;19990;-87
2022/06/15 07:28:47;;;;;;;;;;;;;;;26.31;60.61;100233.16;4380856;32;20009;-87
2022/06/15 07:31:39;;;;;;;;;;;;;;;26.46;60.62;100231.78;4380646;32;20023;-87
2022/06/15 07:34:04;;;;;;;;;;;;;;;26.43;60.62;100226.72;4377795;32;20367;-87
2022/06/15 07:36:30;;;;;;;;;;;;;;;26.26;60.62;100232.69;4394755;32;19990;-87
2022/06/15 07:38:55;;;;;;;;;;;;;;;26.56;60.63;100229.12;4393074;32;20601;-87
2022/06/15 07:41:21;;;;;;;;;;;;;;;26.43;60.62;100234.72;4394649;32;19978;-87
2022/06/15 07:43:46;;;;;;;;;;;;;;;26.55;60.63;100228.28;4380951;32;19982;-87
2022/06/15 07:46:11;;;;;;;;;;;;;;;26.61;60.63;100225.03;4393035;32;20338;-88
2022/06/15 07:51:28;;;;;;;;;;;;;;;26.80;60.64;100226.03;4382806;32;19993;-87
2022/06/15 07:53:53;;;;;;;;;;;;;;;26.65;60.64;100224.75;4394490;32;20281;-87
2022/06/15 07:56:18;;;;;;;;;;;;;;;26.80;60.64;100216.19;4394024;32;19990;-87
2022/06/15 07:58:44;;;;;;;;;;;;;;;26.90;60.65;100224.19;4380844;32;20041;-87
2022/06/15 08:01:09;;;;;;;;;;;;;;;27.12;60.66;100223.91;4393606;32;29076;-87
2022/06/15 08:03:35;;;;;;;;;;;;;;;27.23;60.66;100220.25;4394284;32;20320;-87
2022/06/15 08:06:00;;;;;;;;;;;;;;;27.15;60.65;100215.59;4380762;32;20339;-88
2022/06/15 08:08:26;;;;;;;;;;;;;;;27.24;60.66;100211.25;4367504;32;23504;-87
2022/06/15 08:10:51;;;;;;;;;;;;;;;27.52;60.68;100218.31;4392927;32;20300;-88
2022/06/15 08:13:16;;;;;;;;;;;;;;;27.70;60.69;100215.75;4394257;32;19967;-89
2022/06/15 08:15:42;;;;;;;;;;;;;;;27.90;60.70;100212.97;4367978;32;20048;-88
2022/06/15 08:18:11;;;;;;;;;;;;;;;27.95;60.70;100219.56;4380473;32;19986;-87
2022/06/15 08:20:38;;;;;;;;;;;;;;;28.22;60.72;100213.34;4394280;32;19993;-88
2022/06/15 08:23:07;;;;;;;;;;;;;;;28.22;60.72;100216.03;4380412;32;19970;-88
2022/06/15 08:25:33;;;;;;;;;;;;;;;28.39;60.73;100207.22;4380351;32;19990;-87
2022/06/15 08:27:59;;;;;;;;;;;;;;;28.39;60.72;100214.38;4394174;32;20050;-88
2022/06/15 08:30:24;;;;;;;;;;;;;;;28.81;60.75;100211.06;4394174;32;19978;-88
2022/06/15 08:32:49;;;;;;;;;;;;;;;28.83;60.74;100209.91;4394188;32;20336;-87
2022/06/15 08:35:15;;;;;;;;;;;;;;;28.93;60.75;100209.87;4392777;32;19983;-87
2022/06/15 08:37:40;;;;;;;;;;;;;;;28.98;60.75;100210.25;4392259;32;28638;-87
2022/06/15 08:40:06;;;;;;;;;;;;;;;28.88;60.75;100213.03;4393997;32;19983;-88
2022/06/15 08:42:45;;;;;;;;;;;;;;;28.80;60.75;100210.22;4394102;32;19962;-88
2022/06/15 08:45:17;;;;;;;;;;;;;;;28.93;60.76;100209.87;4380380;32;20008;-88
2022/06/15 08:47:51;;;;;;;;;;;;;;;29.02;60.75;100211.62;4394134;32;19996;-88
2022/06/15 08:50:16;;;;;;;;;;;;;;;29.03;60.75;100211.44;4393975;32;19978;-88
2022/06/15 08:52:42;;;;;;;;;;;;;;;29.04;60.76;100213.13;4392730;32;20070;-89
2022/06/15 08:55:17;;;;;;;;;;;;;;;29.30;60.76;100205.09;4380078;32;19986;-88
2022/06/15 08:57:58;;;;;;;;;;;;;;;29.60;60.78;100201.12;4393933;32;19986;-88
2022/06/15 09:00:41;;;;;;;;;;;;;;;29.70;60.79;100200.97;4393695;32;20009;-88
2022/06/15 09:03:16;;;;;;;;;;;;;;;29.95;60.79;100200.06;4380136;32;19982;-87
2022/06/15 09:05:45;;;;;;;;;;;;;;;29.96;60.81;100198.22;4380135;32;19987;-87
2022/06/15 09:08:10;;;;;;;;;;;;;;;29.92;60.80;100197.72;4380213;32;20043;-86
2022/06/15 09:10:49;;;;;;;;;;;;;;;30.05;60.81;100199.13;4393872;32;19986;-86
2022/06/15 09:13:16;;;;;;;;;;;;;;;29.77;60.79;100193.97;4393818;32;19974;-85
2022/06/15 09:15:42;;;;;;;;;;;;;;;29.52;60.79;100194.84;4392653;32;20397;-85
2022/06/15 09:18:46;;;;;;;;;;;;;;;29.57;60.79;100197.88;4393818;32;19987;-84
2022/06/15 09:21:15;;;;;;;;;;;;;;;29.57;60.79;100196.03;4332194;33;19979;-84
2022/06/15 09:23:42;;;;;;;;;;;;;;;29.51;60.79;100191.34;4319903;33;19984;-84
2022/06/15 09:26:27;;;;;;;;;;;;;;;29.14;60.77;100190.78;4362289;32;20052;-85
2022/06/15 09:29:01;;;;;;;;;;;;;;;29.10;60.77;100192.91;4393994;32;20041;-85
2022/06/15 09:31:49;;;;;;;;;;;;;;;29.23;60.76;100190.66;4393649;32;20385;-84
2022/06/15 09:34:15;;;;;;;;;;;;;;;29.49;60.79;100185.28;4393699;32;19989;-84
2022/06/15 09:36:46;;;;;;;;;;;;;;;29.49;60.79;100197.84;4379789;32;19999;-84
2022/06/15 09:39:11;;;;;;;;;;;;;;;29.52;60.79;100190.31;4367315;32;19990;-83
2022/06/15 09:41:55;;;;;;;;;;;;;;;29.33;60.78;100188.69;4393506;32;19974;-83
2022/06/15 09:44:32;;;;;;;;;;;;;;;29.24;60.78;100191.50;4393406;32;19991;-84
2022/06/15 09:47:04;;;;;;;;;;;;;;;29.17;60.77;100191.28;4393485;32;20002;-84
2022/06/15 09:49:33;;;;;;;;;;;;;;;29.21;60.77;100191.81;4393534;32;19982;-83
2022/06/15 09:51:58;;;;;;;;;;;;;;;29.35;60.78;100185.87;4379630;32;20327;-84
2022/06/15 09:54:42;;;;;;;;;;;;;;;29.52;60.79;100184.97;4393301;32;20009;-84
2022/06/15 09:57:08;;;;;;;;;;;;;;;29.72;60.80;100177.50;4393242;32;20021;-83
2022/06/15 09:59:33;;;;;;;;;;;;;;;29.96;60.81;100176.75;4379564;32;20006;-83
2022/06/15 10:01:59;;;;;;;;;;;;;;;30.14;60.82;100177.50;4379459;32;20308;-83
2022/06/15 10:04:25;;;;;;;;;;;;;;;30.32;60.82;100172.00;4379447;32;19978;-83
2022/06/15 10:06:52;;;;;;;;;;;;;;;30.02;60.81;100167.19;4379340;32;20009;-83
2022/06/15 10:09:17;;;;;;;;;;;;;;;30.21;60.83;100170.47;4367024;32;20008;-83
2022/06/15 10:11:44;;;;;;;;;;;;;;;30.44;60.83;100159.91;4380561;32;19997;-83
2022/06/15 10:14:18;;;;;;;;;;;;;;;30.40;60.83;100160.41;4381394;32;20312;-83
2022/06/15 10:16:48;;;;;;;;;;;;;;;30.38;60.83;100154.38;4393802;32;19994;-83
2022/06/15 10:19:13;;;;;;;;;;;;;;;30.56;60.84;100157.75;4395015;32;20000;-83
2022/06/15 10:21:38;;;;;;;;;;;;;;;30.77;60.85;100163.50;4368696;32;20385;-83
2022/06/15 10:24:13;;;;;;;;;;;;;;;30.97;60.86;100160.41;4380570;32;26760;-83
2022/06/15 10:26:42;;;;;;;;;;;;;;;30.71;60.85;100161.44;4395115;32;20002;-83
2022/06/15 10:29:22;;;;;;;;;;;;;;;30.56;60.83;100152.37;4381306;32;20026;-83
2022/06/15 10:32:05;;;;;;;;;;;;;;;30.53;60.84;100152.72;4395079;32;20014;-82
2022/06/15 10:34:31;;;;;;;;;;;;;;;30.57;60.84;100148.69;4381313;32;20036;-83
2022/06/15 10:36:57;;;;;;;;;;;;;;;30.51;60.84;100141.28;4368542;32;20044;-83
2022/06/15 10:39:28;;;;;;;;;;;;;;;30.45;60.84;100140.09;4381020;32;20066;-83
2022/06/15 10:41:57;;;;;;;;;;;;;;;30.41;60.83;100136.09;4394872;32;20396;-83
2022/06/15 10:44:33;;;;;;;;;;;;;;;30.11;60.82;100139.41;4381191;32;20033;-82
2022/06/15 10:46:58;;;;;;;;;;;;;;;29.86;60.80;100136.66;4381134;32;19995;-83
2022/06/15 10:49:23;;;;;;;;;;;;;;;29.93;60.81;100136.81;4394827;32;20026;-83
2022/06/15 10:51:48;;;;;;;;;;;;;;;30.08;60.81;100132.53;4394914;32;19993;-83
2022/06/15 10:54:17;;;;;;;;;;;;;;;30.30;60.83;100139.09;4380997;32;20252;-83
2022/06/15 11:02:14;;;;;;;;;;;;;;;30.68;60.85;100126.88;4379717;32;20359;-83
2022/06/15 11:04:46;;;;;;;;;;;;;;;30.71;60.85;100129.22;4378417;32;19979;-83
2022/06/15 11:07:12;;;;;;;;;;;;;;;31.02;60.87;100126.66;4379720;32;19986;-83
2022/06/15 11:09:38;;;;;;;;;;;;;;;31.30;60.88;100128.97;4378500;32;19995;-83
2022/06/15 11:12:19;;;;;;;;;;;;;;;31.48;60.89;100107.19;4378346;32;19993;-83
2022/06/15 11:14:49;;;;;;;;;;;;;;;31.66;60.89;100110.44;4365865;32;19983;-83
2022/06/15 11:20:04;;;;;;;;;;;;;;;31.81;60.90;100111.41;4378526;32;20052;-84
2022/06/15 11:22:29;;;;;;;;;;;;;;;31.64;60.90;100107.09;4365393;32;20036;-83
2022/06/15 11:25:06;;;;;;;;;;;;;;;31.33;60.88;100109.78;4377578;32;26876;-83
2022/06/15 11:27:39;;;;;;;;;;;;;;;31.22;60.87;100104.75;4365925;32;19999;-83
2022/06/15 11:30:24;;;;;;;;;;;;;;;31.30;60.88;100107.44;4378248;32;20358;-83
2022/06/15 11:32:52;;;;;;;;;;;;;;;31.38;60.89;100108.22;4379412;32;19991;-83
2022/06/15 11:35:34;;;;;;;;;;;;;;;31.35;60.88;100099.69;4379531;32;20361;-83
2022/06/15 11:38:13;;;;;;;;;;;;;;;31.35;60.88;100097.81;4365842;32;19995;-83
2022/06/15 11:40:52;;;;;;;;;;;;;;;31.29;60.88;100103.91;4378160;32;20494;-83
2022/06/15 11:43:18;;;;;;;;;;;;;;;31.56;60.89;100093.69;4378172;32;20085;-84
2022/06/15 11:46:03;;;;;;;;;;;;;;;31.63;60.90;100091.97;4378190;32;19971;-83
2022/06/15 11:48:28;;;;;;;;;;;;;;;31.61;60.89;100092.16;4379380;32;20050;-83
2022/06/15 11:50:57;;;;;;;;;;;;;;;31.73;60.90;100089.94;4379385;32;20002;-84
2022/06/15 11:53:28;;;;;;;;;;;;;;;32.01;60.91;100084.87;4378019;32;20036;-83
2022/06/15 11:56:14;;;;;;;;;;;;;;;32.21;60.93;100087.94;4386843;32;19978;-83
2022/06/15 11:58:48;;;;;;;;;;;;;;;32.40;60.92;100079.34;4394150;32;20045;-84
2022/06/15 12:01:14;;;;;;;;;;;;;;;32.34;60.92;100074.69;4393068;32;20005;-84
2022/06/15 12:03:43;;;;;;;;;;;;;;;32.17;60.92;100079.34;4394340;32;20028;-84
2022/06/15 12:06:14;;;;;;;;;;;;;;;31.96;60.92;100079.19;4394229;32;19975;-84
2022/06/15 12:08:39;;;;;;;;;;;;;;;31.92;60.91;100078.69;4380536;32;20338;-83
2022/06/15 12:14:13;;;;;;;;;;;;;;;32.02;60.91;100075.78;4382630;32;19997;-83
2022/06/15 12:16:52;;;;;;;;;;;;;;;32.15;60.92;100075.16;4380568;32;20033;-83
2022/06/15 12:19:22;;;;;;;;;;;;;;;32.23;60.92;100064.34;4380341;32;19994;-83
2022/06/15 12:21:55;;;;;;;;;;;;;;;32.31;60.93;100067.81;4380572;32;20335;-83
2022/06/15 12:24:22;;;;;;;;;;;;;;;32.11;60.92;100065.78;4380447;32;19982;-83
2022/06/15 12:26:53;;;;;;;;;;;;;;;32.09;60.91;100067.81;4380430;32;19993;-83
2022/06/15 12:29:31;;;;;;;;;;;;;;;32.35;60.93;100060.22;4394045;32;20002;-83
2022/06/15 12:31:59;;;;;;;;;;;;;;;32.36;60.93;100053.81;4394211;32;20339;-83
2022/06/15 12:34:25;;;;;;;;;;;;;;;32.25;60.92;100055.06;4393080;32;20096;-83
2022/06/15 12:36:55;;;;;;;;;;;;;;;32.41;60.93;100056.78;4394105;32;19971;-83
2022/06/15 12:39:25;;;;;;;;;;;;;;;32.26;60.92;100061.31;4367799;32;19998;-83
2022/06/15 12:44:53;;;;;;;;;;;;;;;32.24;60.92;100053.38;4382513;32;20028;-84
2022/06/15 12:47:19;;;;;;;;;;;;;;;32.48;60.93;100049.66;4394317;32;20268;-83
2022/06/15 12:49:44;;;;;;;;;;;;;;;32.28;60.93;100043.94;4380731;32;20005;-84
2022/06/15 12:52:14;;;;;;;;;;;;;;;32.39;60.93;100044.50;4394207;32;19990;-84
2022/06/15 12:54:42;;;;;;;;;;;;;;;32.48;60.93;100043.44;4380433;32;19974;-84
2022/06/15 12:57:13;;;;;;;;;;;;;;;32.74;60.94;100043.00;4394293;32;19985;-83
2022/06/15 12:59:54;;;;;;;;;;;;;;;32.71;60.95;100046.06;4394189;32;19998;-81
2022/06/15 13:02:28;;;;;;;;;;;;;;;32.72;60.95;100039.66;4393957;32;20045;-81